Centerville, Utah
Current Conditions -  °F | °C
As of 5:53 PM on Monday 26 Jan 2015 (Local Time) from KSLC Reporting Station
Few Clouds Few Clouds  
Wind Chill:   Ceiling: Unl
Heat Index:   Visibility: 8mi
Dew Point:   Wind: 8mph
Humidity: 73%   Direction: 280°W
Pressure: 30.22"   Gusts: NA
Location:  40.92°N, 111.87°W
Report Text: KSLC 270053Z 28007KT 8SM FEW200 04/00 A3022 RMK AO2 SLP229 T00440000
Loading
Personal Weather Stations






























Interactive Weather Map New forecast layout! Learn more

10-Day Weather Forecast

Advertisements
Track Severe Weather on mobile